createdAt,value
2018-06-19T00:01:19.672Z,19.50
2018-06-19T00:03:46.901Z,19.50
2018-06-19T00:06:14.049Z,19.30
2018-06-19T00:08:41.247Z,19.30
2018-06-19T00:11:09.293Z,19.40
2018-06-19T00:13:36.528Z,19.30
2018-06-19T00:16:03.696Z,19.30
2018-06-19T00:18:32.672Z,19.30
2018-06-19T00:21:04.077Z,19.30
2018-06-19T00:23:31.934Z,19.20
2018-06-19T00:25:59.712Z,19.20
2018-06-19T00:30:54.147Z,19.10
2018-06-19T00:33:21.323Z,19.00
2018-06-19T00:35:48.985Z,18.90
2018-06-19T00:38:16.138Z,18.90
2018-06-19T00:40:44.256Z,18.90
2018-06-19T00:43:11.478Z,18.80
2018-06-19T00:45:38.675Z,18.70
2018-06-19T00:48:07.344Z,18.80
2018-06-19T00:50:35.225Z,18.70
2018-06-19T00:53:02.492Z,18.60
2018-06-19T00:55:29.631Z,18.60
2018-06-19T00:57:56.841Z,18.50
2018-06-19T01:00:24.055Z,18.50
2018-06-19T01:02:51.258Z,18.50
2018-06-19T01:05:18.499Z,18.50
2018-06-19T01:07:45.644Z,18.50
2018-06-19T01:10:12.842Z,18.50
2018-06-19T01:12:40.048Z,18.60
2018-06-19T01:15:07.243Z,18.60
2018-06-19T01:17:34.432Z,18.70
2018-06-19T01:20:04.085Z,18.70
2018-06-19T01:22:31.239Z,18.70
2018-06-19T01:24:59.037Z,18.70
2018-06-19T01:27:26.149Z,18.60
2018-06-19T01:29:53.366Z,18.60
2018-06-19T01:32:20.544Z,18.60
2018-06-19T01:34:47.719Z,18.60
2018-06-19T01:37:14.808Z,18.60
2018-06-19T01:39:42.159Z,18.50
2018-06-19T01:42:09.287Z,18.50
2018-06-19T01:44:36.664Z,18.40
2018-06-19T01:47:03.952Z,18.40
2018-06-19T01:49:31.904Z,18.40
2018-06-19T01:51:59.008Z,18.40
2018-06-19T01:54:26.107Z,18.30
2018-06-19T01:56:53.401Z,18.30
2018-06-19T01:59:21.230Z,18.30
2018-06-19T02:01:48.416Z,18.30
2018-06-19T02:04:22.256Z,18.30
2018-06-19T02:06:49.456Z,18.30
2018-06-19T02:09:16.760Z,18.30
2018-06-19T02:11:43.996Z,18.20
2018-06-19T02:14:11.180Z,18.20
2018-06-19T02:16:38.405Z,18.20
2018-06-19T02:19:06.230Z,18.20
2018-06-19T02:21:33.358Z,18.10
2018-06-19T02:24:00.525Z,18.10
2018-06-19T02:26:27.730Z,17.90
2018-06-19T02:28:54.882Z,17.80
2018-06-19T02:31:21.961Z,17.90
2018-06-19T02:33:49.810Z,17.90
2018-06-19T02:36:17.080Z,17.90
2018-06-19T02:41:11.376Z,17.90
2018-06-19T02:43:38.504Z,17.70
2018-06-19T02:46:05.611Z,17.80
2018-06-19T02:48:32.729Z,17.80
2018-06-19T02:50:59.896Z,17.70
2018-06-19T02:53:27.723Z,17.60
2018-06-19T02:55:55.029Z,17.50
2018-06-19T02:58:22.095Z,17.40
2018-06-19T03:00:50.077Z,17.30
2018-06-19T03:03:17.235Z,17.30
2018-06-19T03:05:44.448Z,17.30
2018-06-19T03:08:11.717Z,17.20
2018-06-19T03:10:38.892Z,17.10
2018-06-19T03:13:06.001Z,17.10
2018-06-19T03:15:33.127Z,17.10
2018-06-19T03:18:00.839Z,17.20
2018-06-19T03:20:27.928Z,17.20
2018-06-19T03:22:55.065Z,17.30
2018-06-19T03:25:22.669Z,17.40
2018-06-19T03:27:50.068Z,17.50
2018-06-19T03:30:17.906Z,17.40
2018-06-19T03:32:44.961Z,17.40
2018-06-19T03:37:39.268Z,17.40
2018-06-19T03:40:06.488Z,17.50
2018-06-19T03:42:33.693Z,17.50
2018-06-19T03:45:00.825Z,17.40
2018-06-19T03:47:27.928Z,17.20
2018-06-19T03:49:55.159Z,17.10
2018-06-19T03:54:49.384Z,17.00
2018-06-19T03:57:16.795Z,17.00
2018-06-19T03:59:43.971Z,17.00
2018-06-19T04:02:11.193Z,17.10
2018-06-19T04:04:38.480Z,17.00
2018-06-19T04:07:06.547Z,17.10
2018-06-19T04:09:33.741Z,17.30
2018-06-19T04:12:00.802Z,17.40
2018-06-19T04:14:28.304Z,17.40
2018-06-19T04:16:55.480Z,17.30
2018-06-19T04:19:22.700Z,17.40
2018-06-19T04:21:49.821Z,17.40
2018-06-19T04:24:16.957Z,17.40
2018-06-19T04:26:44.079Z,17.40
2018-06-19T04:29:11.224Z,17.50
2018-06-19T04:31:38.409Z,17.50
2018-06-19T04:34:05.591Z,17.50
2018-06-19T04:36:33.577Z,17.40
2018-06-19T04:39:00.703Z,17.40
2018-06-19T04:41:28.100Z,17.40
2018-06-19T04:46:22.436Z,17.40
2018-06-19T04:48:49.544Z,17.40
2018-06-19T04:51:16.900Z,17.30
2018-06-19T04:53:44.032Z,17.30
2018-06-19T04:56:11.491Z,17.20
2018-06-19T04:58:38.782Z,17.30
2018-06-19T05:01:06.009Z,17.40
2018-06-19T05:03:33.382Z,17.40
2018-06-19T05:06:01.354Z,17.30
2018-06-19T05:08:28.506Z,17.30
2018-06-19T05:10:56.390Z,17.40
2018-06-19T05:13:24.121Z,17.40
2018-06-19T05:15:51.257Z,17.40
2018-06-19T05:18:18.734Z,17.50
2018-06-19T05:20:45.874Z,17.50
2018-06-19T05:23:13.265Z,17.70
2018-06-19T05:28:07.518Z,17.90
2018-06-19T05:30:34.835Z,17.80
2018-06-19T05:33:02.024Z,17.90
2018-06-19T05:35:29.106Z,18.00
2018-06-19T05:37:56.310Z,18.00
2018-06-19T05:40:23.452Z,18.10
2018-06-19T05:42:51.141Z,18.20
2018-06-19T05:45:18.581Z,18.20
2018-06-19T05:47:45.683Z,18.30
2018-06-19T05:50:13.752Z,18.30
2018-06-19T05:52:40.800Z,18.40
2018-06-19T05:55:07.888Z,18.40
2018-06-19T06:00:03.633Z,18.40
2018-06-19T06:02:31.040Z,18.50
2018-06-19T06:04:58.115Z,18.60
2018-06-19T06:07:25.221Z,18.60
2018-06-19T06:09:52.845Z,18.60
2018-06-19T06:12:19.914Z,18.80
2018-06-19T06:14:47.581Z,18.90
2018-06-19T06:17:16.170Z,19.00
2018-06-19T06:19:43.198Z,19.00
2018-06-19T06:22:11.119Z,19.10
2018-06-19T06:24:38.234Z,19.20
2018-06-19T06:27:05.771Z,19.30
2018-06-19T06:29:32.797Z,19.40
2018-06-19T06:31:59.893Z,19.40
2018-06-19T06:34:27.084Z,19.20
2018-06-19T06:36:54.486Z,19.30
2018-06-19T06:39:21.564Z,19.40
2018-06-19T06:41:48.578Z,19.50
2018-06-19T06:44:15.925Z,19.60
2018-06-19T06:49:11.426Z,19.80
2018-06-19T06:51:38.812Z,19.90
2018-06-19T06:54:05.912Z,19.90
2018-06-19T06:56:33.130Z,19.90
2018-06-19T06:59:00.235Z,20.00
2018-06-19T07:01:27.338Z,20.00
2018-06-19T07:03:54.802Z,20.10
2018-06-19T07:08:49.593Z,20.10
2018-06-19T07:11:16.685Z,20.20
2018-06-19T07:13:44.515Z,20.30
2018-06-19T07:16:11.697Z,20.40
2018-06-19T07:35:23.572Z,20.70
2018-06-19T07:37:51.099Z,20.80
2018-06-19T07:40:18.844Z,20.80
2018-06-19T07:42:46.010Z,20.80
2018-06-19T07:45:13.225Z,20.90
2018-06-19T07:47:40.311Z,20.90
2018-06-19T07:50:07.379Z,20.90
2018-06-19T07:52:34.432Z,21.00
2018-06-19T07:55:01.606Z,21.20
2018-06-19T07:57:28.660Z,21.30
2018-06-19T07:59:56.268Z,21.40
2018-06-19T08:02:24.072Z,21.60
2018-06-19T08:04:51.137Z,21.40
2018-06-19T08:07:18.232Z,21.40
2018-06-19T08:09:45.953Z,21.40
2018-06-19T08:12:13.008Z,21.40
2018-06-19T08:14:40.108Z,21.20
2018-06-19T08:17:07.114Z,21.40
2018-06-19T08:19:34.197Z,21.40
2018-06-19T08:22:01.326Z,21.50
2018-06-19T08:24:28.348Z,21.60
2018-06-19T08:26:55.687Z,21.60
2018-06-19T08:29:23.114Z,21.60
2018-06-19T08:31:50.261Z,21.90
2018-06-19T08:34:17.767Z,21.80
2018-06-19T08:36:44.873Z,21.70
2018-06-19T08:39:13.079Z,21.80
2018-06-19T08:41:40.940Z,22.00
2018-06-19T08:44:08.062Z,22.20
2018-06-19T08:46:35.328Z,22.30
2018-06-19T08:49:02.434Z,22.40
2018-06-19T08:51:29.517Z,22.40
2018-06-19T08:53:56.557Z,22.40
2018-06-19T08:56:23.573Z,22.60
2018-06-19T08:58:50.632Z,22.80
2018-06-19T09:01:17.696Z,22.50
2018-06-19T09:03:44.900Z,22.40
2018-06-19T09:06:12.041Z,22.30
2018-06-19T09:08:39.220Z,22.30
2018-06-19T09:11:06.473Z,22.30
2018-06-19T09:13:33.613Z,22.50
2018-06-19T09:16:00.635Z,22.60
2018-06-19T09:18:27.709Z,22.50
2018-06-19T09:20:54.755Z,22.60
2018-06-19T09:23:21.925Z,22.40
2018-06-19T09:25:49.116Z,22.40
2018-06-19T09:28:16.164Z,22.40
2018-06-19T09:30:43.852Z,22.60
2018-06-19T09:33:10.875Z,22.80
2018-06-19T09:35:37.993Z,22.80
2018-06-19T09:38:05.976Z,22.70
2018-06-19T09:40:33.043Z,22.60
2018-06-19T09:43:00.773Z,22.50
2018-06-19T09:45:27.975Z,22.40
2018-06-19T09:47:55.187Z,22.50
2018-06-19T09:50:22.291Z,22.50
2018-06-19T09:52:49.343Z,22.30
2018-06-19T09:55:16.503Z,22.20
2018-06-19T09:57:43.602Z,22.20
2018-06-19T10:00:12.308Z,22.20
2018-06-19T10:02:39.416Z,22.10
2018-06-19T10:05:06.464Z,22.10
2018-06-19T10:07:33.799Z,22.10
2018-06-19T10:10:00.921Z,22.10
2018-06-19T10:12:27.951Z,22.10
2018-06-19T10:31:39.088Z,21.90
2018-06-19T10:34:06.147Z,22.00
2018-06-19T10:36:33.620Z,22.00
2018-06-19T10:39:00.664Z,22.10
2018-06-19T10:41:27.812Z,22.10
2018-06-19T10:43:54.892Z,22.20
2018-06-19T10:46:22.073Z,22.30
2018-06-19T10:48:49.324Z,22.10
2018-06-19T10:51:16.380Z,22.10
2018-06-19T10:53:43.431Z,22.10
2018-06-19T10:56:10.611Z,22.20
2018-06-19T10:58:37.863Z,22.20
2018-06-19T11:01:05.118Z,22.20
2018-06-19T11:03:32.234Z,22.20
2018-06-19T11:05:59.388Z,22.30
2018-06-19T11:08:26.508Z,22.30
2018-06-19T11:10:53.679Z,22.30
2018-06-19T11:13:20.793Z,22.40
2018-06-19T11:15:47.871Z,22.60
2018-06-19T11:18:14.930Z,22.80
2018-06-19T11:20:41.978Z,22.80
2018-06-19T11:23:09.054Z,22.80
2018-06-19T11:25:36.172Z,22.90
2018-06-19T11:28:03.580Z,23.00
2018-06-19T11:30:30.686Z,23.00
2018-06-19T11:32:57.831Z,23.20
2018-06-19T11:35:24.910Z,23.20
2018-06-19T11:37:52.006Z,23.30
2018-06-19T11:40:19.162Z,23.20
2018-06-19T11:42:46.261Z,23.20
2018-06-19T11:45:14.004Z,23.20
2018-06-19T11:47:41.412Z,23.30
2018-06-19T11:50:08.513Z,23.40
2018-06-19T11:52:35.664Z,23.40
2018-06-19T11:55:02.782Z,23.40
2018-06-19T11:57:29.987Z,23.30
2018-06-19T11:59:57.181Z,23.50
2018-06-19T12:02:24.411Z,23.70
2018-06-19T12:04:51.632Z,23.80
2018-06-19T12:07:18.713Z,23.90
2018-06-19T12:09:45.803Z,23.90
2018-06-19T12:12:12.889Z,23.70
2018-06-19T12:14:40.040Z,23.60
2018-06-19T12:17:07.580Z,23.70
2018-06-19T12:19:34.747Z,23.90
2018-06-19T12:22:02.104Z,24.00
2018-06-19T12:24:29.227Z,24.00
2018-06-19T12:26:56.392Z,24.00
2018-06-19T12:29:23.473Z,24.10
2018-06-19T12:31:50.647Z,24.30
2018-06-19T12:34:17.721Z,24.20
2018-06-19T12:36:45.052Z,24.30
2018-06-19T12:39:12.948Z,24.30
2018-06-19T12:41:42.806Z,24.30
2018-06-19T12:44:10.237Z,24.20
2018-06-19T12:46:38.477Z,24.20
2018-06-19T12:49:05.896Z,24.30
2018-06-19T12:51:45.075Z,24.40
2018-06-19T12:54:43.856Z,24.20
2018-06-19T12:57:11.173Z,24.00
2018-06-19T12:59:39.294Z,23.90
2018-06-19T13:04:45.314Z,24.20
2018-06-19T13:07:12.649Z,24.20
2018-06-19T13:09:39.914Z,24.20
2018-06-19T13:12:17.366Z,24.20
2018-06-19T13:14:45.129Z,24.20
2018-06-19T13:17:23.819Z,24.00
2018-06-19T13:36:36.015Z,23.90
2018-06-19T13:39:03.166Z,23.90
2018-06-19T13:41:41.879Z,24.00
2018-06-19T13:44:20.822Z,24.00
2018-06-19T13:46:48.362Z,24.00
2018-06-19T13:49:15.649Z,24.00
2018-06-19T13:51:43.061Z,24.00
2018-06-19T13:54:10.295Z,23.90
2018-06-19T13:56:59.361Z,23.90
2018-06-19T13:59:26.526Z,23.80
2018-06-19T14:01:53.700Z,23.80
2018-06-19T14:04:20.824Z,23.90
2018-06-19T14:06:48.005Z,23.80
2018-06-19T14:13:09.057Z,23.90
2018-06-19T14:15:40.752Z,23.90
2018-06-19T14:18:08.118Z,23.80
2018-06-19T14:20:35.391Z,23.90
2018-06-19T14:23:02.527Z,23.90
2018-06-19T14:25:29.775Z,23.90
2018-06-19T14:27:57.136Z,24.00
2018-06-19T14:30:24.468Z,24.10
2018-06-19T14:32:51.899Z,24.10
2018-06-19T14:35:19.349Z,24.10
2018-06-19T14:37:47.656Z,24.10
2018-06-19T14:40:15.148Z,24.20
2018-06-19T14:42:42.401Z,24.20
2018-06-19T14:45:10.949Z,24.20
2018-06-19T14:47:38.303Z,24.20
2018-06-19T14:50:06.314Z,24.10
2018-06-19T14:52:33.460Z,24.00
2018-06-19T14:55:00.590Z,23.80
2018-06-19T14:57:28.709Z,23.80
2018-06-19T14:59:55.990Z,23.90
2018-06-19T15:02:23.192Z,23.90
2018-06-19T15:04:51.708Z,23.90
2018-06-19T15:07:19.061Z,23.90
2018-06-19T15:09:46.547Z,24.00
2018-06-19T15:12:13.759Z,24.10
2018-06-19T15:14:40.978Z,24.20
2018-06-19T15:17:08.249Z,24.30
2018-06-19T15:19:35.570Z,24.30
2018-06-19T15:22:03.294Z,24.30
2018-06-19T15:24:30.425Z,24.30
2018-06-19T15:26:57.542Z,24.40
2018-06-19T15:29:24.872Z,24.20
2018-06-19T15:31:52.388Z,24.20
2018-06-19T15:34:19.526Z,24.20
2018-06-19T15:36:46.993Z,24.20
2018-06-19T15:39:14.465Z,24.40
2018-06-19T15:41:42.528Z,24.60
2018-06-19T15:44:09.678Z,24.60
2018-06-19T15:46:36.800Z,24.60
2018-06-19T15:49:04.808Z,24.60
2018-06-19T15:51:32.577Z,24.60
2018-06-19T15:53:59.981Z,24.40
2018-06-19T15:56:27.824Z,24.50
2018-06-19T15:58:54.960Z,24.60
2018-06-19T16:01:23.558Z,24.70
2018-06-19T16:06:18.181Z,24.60
2018-06-19T16:08:45.290Z,24.60
2018-06-19T16:27:56.672Z,24.40
2018-06-19T16:30:25.021Z,24.40
2018-06-19T16:32:52.173Z,24.40
2018-06-19T16:35:19.352Z,24.40
2018-06-19T16:37:47.385Z,24.40
2018-06-19T16:40:14.692Z,24.40
2018-06-19T16:42:42.847Z,24.50
2018-06-19T16:45:10.240Z,24.50
2018-06-19T16:47:38.161Z,24.40
2018-06-19T16:52:32.931Z,24.40
2018-06-19T16:55:00.011Z,24.30
2018-06-19T16:57:27.155Z,24.40
2018-06-19T16:59:54.408Z,24.50
2018-06-19T17:02:21.858Z,24.60
2018-06-19T17:04:49.080Z,24.60
2018-06-19T17:07:17.248Z,24.60
2018-06-19T17:09:44.674Z,24.60
2018-06-19T17:12:12.669Z,24.70
2018-06-19T17:14:39.740Z,24.70
2018-06-19T17:17:06.942Z,24.60
2018-06-19T17:19:34.044Z,24.40
2018-06-19T17:22:01.975Z,24.40
2018-06-19T17:24:29.198Z,24.30
2018-06-19T17:26:56.694Z,24.30
2018-06-19T17:29:23.892Z,24.30
2018-06-19T17:31:51.178Z,24.30
2018-06-19T17:34:18.393Z,24.20
2018-06-19T17:36:45.588Z,24.20
2018-06-19T17:39:12.805Z,24.20
2018-06-19T17:41:40.009Z,24.30
2018-06-19T17:44:07.348Z,24.40
2018-06-19T17:46:35.238Z,24.40
2018-06-19T17:49:03.007Z,24.50
2018-06-19T17:51:30.273Z,24.50
2018-06-19T17:53:57.364Z,24.60
2018-06-19T17:56:24.541Z,24.60
2018-06-19T17:58:51.847Z,24.60
2018-06-19T18:01:18.981Z,24.60
2018-06-19T18:03:46.109Z,24.80
2018-06-19T18:06:13.358Z,24.80
2018-06-19T18:08:40.464Z,25.00
2018-06-19T18:11:08.550Z,25.20
2018-06-19T18:13:35.679Z,25.40
2018-06-19T18:16:02.948Z,25.50
2018-06-19T18:18:30.299Z,25.50
2018-06-19T18:20:57.403Z,25.60
2018-06-19T18:23:24.523Z,25.80
2018-06-19T18:25:52.882Z,25.90
2018-06-19T18:28:20.066Z,25.90
2018-06-19T18:30:47.291Z,25.90
2018-06-19T18:33:15.107Z,25.80
2018-06-19T18:35:42.233Z,25.60
2018-06-19T18:38:09.447Z,25.50
2018-06-19T18:40:36.956Z,25.50
2018-06-19T18:43:04.224Z,25.40
2018-06-19T18:45:31.325Z,25.20
2018-06-19T18:47:58.409Z,25.00
2018-06-19T18:50:25.529Z,24.90
2018-06-19T18:52:53.444Z,24.90
2018-06-19T18:55:20.708Z,25.10
2018-06-19T19:00:14.959Z,25.70
2018-06-19T19:02:42.312Z,25.70
2018-06-19T19:05:09.376Z,25.50
2018-06-19T19:24:21.009Z,24.20
2018-06-19T19:26:54.455Z,24.10
2018-06-19T19:29:28.000Z,24.00
2018-06-19T19:31:55.581Z,23.90
2018-06-19T19:34:24.250Z,23.70
2018-06-19T19:36:57.227Z,23.70
2018-06-19T19:39:29.046Z,23.70
2018-06-19T19:41:56.400Z,23.80
2018-06-19T19:44:23.677Z,23.70
2018-06-19T19:46:56.456Z,23.70
2018-06-19T19:49:24.706Z,23.70
2018-06-19T19:51:52.482Z,23.60
2018-06-19T19:54:20.199Z,23.60
2018-06-19T19:56:53.145Z,23.50
2018-06-19T19:59:20.464Z,23.40
2018-06-19T20:01:48.548Z,23.40
2018-06-19T20:04:15.864Z,23.30
2018-06-19T20:06:43.062Z,23.30
2018-06-19T20:09:10.349Z,23.20
2018-06-19T20:11:37.432Z,23.20
2018-06-19T20:14:04.779Z,23.00
2018-06-19T20:16:32.486Z,23.00
2018-06-19T20:18:59.560Z,22.90
2018-06-19T20:21:27.006Z,23.00
2018-06-19T20:23:54.281Z,23.00
2018-06-19T20:26:22.747Z,23.00
2018-06-19T20:31:17.278Z,22.90
2018-06-19T20:36:11.717Z,22.90
2018-06-19T20:38:38.940Z,22.80
2018-06-19T20:41:06.905Z,22.80
2018-06-19T20:43:34.991Z,22.70
2018-06-19T20:46:03.302Z,22.60
2018-06-19T20:48:30.560Z,22.50
2018-06-19T20:50:58.063Z,22.50
2018-06-19T20:53:26.340Z,22.50
2018-06-19T20:58:22.775Z,22.30
2018-06-19T21:03:18.569Z,22.20
2018-06-19T21:05:46.473Z,22.20
2018-06-19T21:08:14.970Z,22.20
2018-06-19T21:10:42.400Z,22.20
2018-06-19T21:13:09.821Z,22.20
2018-06-19T21:15:37.584Z,22.10
2018-06-19T21:18:04.971Z,22.10
2018-06-19T21:20:33.260Z,22.10
2018-06-19T21:23:01.652Z,22.00
2018-06-19T21:25:29.118Z,22.00
2018-06-19T21:30:24.333Z,22.00
2018-06-19T21:32:51.631Z,21.90
2018-06-19T21:35:20.321Z,22.00
2018-06-19T21:37:50.105Z,22.00
2018-06-19T21:40:17.378Z,21.90
2018-06-19T21:42:44.573Z,21.90
2018-06-19T21:45:11.839Z,21.90
2018-06-19T21:47:41.282Z,21.90
2018-06-19T21:50:09.692Z,21.90
2018-06-19T21:52:37.994Z,21.90
2018-06-19T21:55:07.438Z,21.90
2018-06-19T21:57:34.649Z,21.80
2018-06-19T22:00:02.635Z,21.80
2018-06-19T22:02:32.960Z,21.70
2018-06-19T22:05:03.263Z,21.70
2018-06-19T22:07:30.772Z,21.70
2018-06-19T22:09:58.205Z,21.60
2018-06-19T22:12:25.528Z,21.60
2018-06-19T22:14:52.809Z,21.60
2018-06-19T22:17:20.719Z,21.50
2018-06-19T22:19:47.946Z,21.50
2018-06-19T22:22:16.246Z,21.50
2018-06-19T22:24:43.423Z,21.50
2018-06-19T22:27:10.548Z,21.50
2018-06-19T22:29:37.725Z,21.40
2018-06-19T22:32:05.253Z,21.40
2018-06-19T22:34:32.415Z,21.30
2018-06-19T22:36:59.606Z,21.30
2018-06-19T22:39:33.572Z,21.30
2018-06-19T22:42:00.871Z,21.20
2018-06-19T22:44:28.589Z,21.20
2018-06-19T22:46:55.730Z,21.20
2018-06-19T22:49:22.995Z,21.10
2018-06-19T22:51:50.396Z,21.10
2018-06-19T22:54:17.534Z,21.20
2018-06-19T22:56:44.738Z,21.10
2018-06-19T22:59:11.884Z,21.20
2018-06-19T23:01:39.035Z,21.30
2018-06-19T23:04:06.238Z,21.20
2018-06-19T23:06:33.458Z,21.20
2018-06-19T23:09:00.615Z,21.20
2018-06-19T23:11:27.844Z,21.20
2018-06-19T23:13:55.252Z,21.10
2018-06-19T23:16:22.368Z,21.10
2018-06-19T23:18:49.477Z,21.20
2018-06-19T23:21:16.599Z,21.10
2018-06-19T23:23:44.061Z,21.10
2018-06-19T23:26:11.176Z,21.10
2018-06-19T23:28:38.312Z,21.10
2018-06-19T23:31:05.456Z,21.10
2018-06-19T23:33:33.110Z,21.10
2018-06-19T23:36:00.171Z,21.20
2018-06-19T23:38:27.939Z,21.10
2018-06-19T23:40:55.819Z,21.20
2018-06-19T23:43:23.021Z,21.20
2018-06-19T23:45:50.167Z,21.20
2018-06-19T23:48:17.319Z,21.20
2018-06-19T23:50:44.524Z,21.30
2018-06-19T23:53:11.892Z,21.30
2018-06-19T23:55:39.040Z,21.30
2018-06-19T23:58:06.471Z,21.10
